Time;durP1;ratioP1;P1;durP2;ratioP2;P2;SDS_P1;SDS_P2;PMS_P1;PMS_P2;Temp;Humidity;BMP_temperature;BMP_pressure;BME280_temperature;BME280_humidity;BME280_pressure;Samples;Min_cycle;Max_cycle;Signal;HPM_P1;HPM_P2
2022/02/01 00:00:58;;;;;;;8.60;1.60;;;4.80;99.90;;;;;;5082371;28;20252;-57
2022/02/01 00:03:29;;;;;;;11.17;2.37;;;4.80;99.90;;;;;;5080648;28;20238;-58
2022/02/01 00:06:10;;;;;;;7.90;1.33;;;4.80;99.90;;;;;;5080934;28;20818;-57
2022/02/01 00:08:48;;;;;;;10.67;1.57;;;4.70;99.90;;;;;;5087868;28;20649;-57
2022/02/01 00:11:34;;;;;;;7.03;1.90;;;4.70;99.90;;;;;;5084746;28;20278;-56
2022/02/01 00:17:05;;;;;;;8.20;1.87;;;4.70;99.90;;;;;;5088093;28;20269;-56
2022/02/01 00:19:51;;;;;;;9.67;1.70;;;4.80;99.90;;;;;;5084159;28;20199;-56
2022/02/01 00:36:20;;;;;;;7.30;1.23;;;4.50;99.90;;;;;;5083384;28;20220;-58
2022/02/01 00:38:51;;;;;;;9.83;1.93;;;4.60;99.90;;;;;;5080691;28;20233;-57
2022/02/01 00:41:19;;;;;;;5.30;1.67;;;4.70;99.90;;;;;;5080264;28;20196;-57
2022/02/01 00:43:46;;;;;;;6.30;1.50;;;4.70;99.90;;;;;;5082401;28;20237;-56
2022/02/01 00:46:13;;;;;;;5.00;1.10;;;4.40;99.90;;;;;;5081761;28;20291;-56
2022/02/01 00:48:39;;;;;;;9.60;1.67;;;4.20;99.90;;;;;;5084658;28;20633;-56
2022/02/01 00:51:11;;;;;;;5.13;1.20;;;4.20;99.90;;;;;;5083247;28;20598;-58
2022/02/01 00:53:40;;;;;;;6.37;1.50;;;4.20;99.90;;;;;;5083659;28;20279;-57
2022/02/01 00:56:07;;;;;;;5.47;1.27;;;4.30;99.90;;;;;;5081647;28;20315;-57
2022/02/01 00:58:34;;;;;;;6.03;1.10;;;4.50;99.90;;;;;;5083487;28;20194;-56
2022/02/01 01:01:00;;;;;;;6.07;1.83;;;4.30;99.90;;;;;;5077073;28;20772;-58
2022/02/01 01:03:29;;;;;;;8.37;1.10;;;4.30;99.90;;;;;;5080663;28;20309;-56
2022/02/01 01:05:56;;;;;;;8.30;1.63;;;4.10;99.90;;;;;;5086175;28;20214;-58
2022/02/01 01:08:23;;;;;;;8.23;1.50;;;4.10;99.90;;;;;;5084635;28;20240;-57
2022/02/01 01:10:50;;;;;;;7.47;1.57;;;3.90;99.90;;;;;;5081335;28;20533;-57
2022/02/01 01:15:59;;;;;;;6.03;1.87;;;3.80;99.90;;;;;;5084365;28;21118;-57
2022/02/01 01:18:50;;;;;;;9.40;1.17;;;3.70;99.90;;;;;;5080515;28;20204;-56
2022/02/01 01:43:35;;;;;;;9.00;1.37;;;4.10;99.90;;;;;;5084531;28;20237;-57
2022/02/01 01:54:26;;;;;;;6.10;1.60;;;3.70;99.90;;;;;;5079948;28;20211;-56
2022/02/01 01:56:55;;;;;;;4.27;1.30;;;3.60;99.90;;;;;;5081334;28;20206;-57
2022/02/01 01:59:25;;;;;;;8.07;1.27;;;3.80;99.90;;;;;;5077698;28;20225;-54
2022/02/01 02:01:52;;;;;;;7.63;1.90;;;3.70;99.90;;;;;;5063877;28;20406;-55
2022/02/01 02:04:19;;;;;;;8.43;1.60;;;3.60;99.90;;;;;;5078852;28;20321;-56
2022/02/01 02:06:47;;;;;;;6.93;1.70;;;3.70;99.90;;;;;;5081572;28;20201;-57
2022/02/01 02:09:14;;;;;;;7.10;1.70;;;3.80;99.90;;;;;;5080253;28;20598;-56
2022/02/01 02:14:25;;;;;;;9.30;1.30;;;3.80;99.90;;;;;;5082975;28;20235;-56
2022/02/01 02:17:00;;;;;;;5.93;1.77;;;3.70;99.90;;;;;;5072449;28;20273;-57
2022/02/01 02:19:30;;;;;;;6.90;1.30;;;3.70;99.90;;;;;;5081844;28;20309;-58
2022/02/01 02:22:06;;;;;;;5.77;1.33;;;3.80;99.90;;;;;;5080434;28;20231;-57
2022/02/01 02:24:35;;;;;;;7.10;1.27;;;4.00;99.90;;;;;;5077542;28;20206;-56
2022/02/01 02:27:02;;;;;;;6.23;1.50;;;4.00;99.90;;;;;;5083107;28;20580;-57
2022/02/01 02:29:30;;;;;;;7.03;1.40;;;4.10;99.90;;;;;;5078554;28;20299;-56
2022/02/01 02:31:57;;;;;;;5.77;1.17;;;4.20;99.90;;;;;;5080853;28;20234;-55
2022/02/01 02:34:25;;;;;;;4.37;1.73;;;4.10;99.90;;;;;;5079448;28;20202;-56
2022/02/01 02:37:07;;;;;;;7.00;1.10;;;4.00;99.90;;;;;;5081504;28;20310;-57
2022/02/01 02:39:46;;;;;;;4.63;1.50;;;3.90;99.90;;;;;;5078565;28;20245;-55
2022/02/01 02:42:24;;;;;;;8.43;1.30;;;3.90;99.90;;;;;;5081122;28;20671;-61
2022/02/01 02:45:09;;;;;;;2.37;0.90;;;4.00;99.90;;;;;;5083650;28;20207;-57
2022/02/01 02:47:36;;;;;;;5.67;1.20;;;4.10;99.90;;;;;;5081741;28;20207;-57
2022/02/01 02:50:04;;;;;;;4.83;1.40;;;4.20;99.90;;;;;;5080116;28;20729;-62
2022/02/01 02:52:31;;;;;;;6.53;0.70;;;4.30;99.90;;;;;;5082972;28;20999;-57
2022/02/01 02:54:59;;;;;;;5.50;1.00;;;4.40;99.90;;;;;;5078974;28;20207;-57
2022/02/01 02:57:26;;;;;;;10.47;1.80;;;4.40;99.90;;;;;;5079816;28;20681;-57
2022/02/01 02:59:53;;;;;;;3.20;1.07;;;4.40;99.90;;;;;;5080512;28;20299;-57
2022/02/01 03:02:20;;;;;;;8.23;1.43;;;4.30;99.90;;;;;;5079340;28;20231;-57
2022/02/01 03:04:47;;;;;;;6.07;0.80;;;4.50;99.90;;;;;;5079218;28;20244;-57
2022/02/01 03:07:15;;;;;;;12.67;2.03;;;4.40;99.90;;;;;;5082158;28;20235;-56
2022/02/01 03:09:43;;;;;;;4.63;1.17;;;4.40;99.90;;;;;;5077425;28;20230;-57
2022/02/01 03:12:19;;;;;;;12.77;1.47;;;4.30;99.90;;;;;;5083189;28;20204;-58
2022/02/01 03:14:57;;;;;;;7.23;1.37;;;4.20;99.90;;;;;;5083572;28;20598;-58
2022/02/01 03:19:49;;;;;;;11.00;1.33;;;4.20;99.90;;;;;;5080412;28;20245;-55
2022/02/01 03:20:14;;;;;;;7.93;1.20;;;4.20;99.90;;;;;;5075610;28;20687;-57
2022/02/01 03:22:41;;;;;;;8.13;1.30;;;4.20;99.90;;;;;;5078556;28;20198;-57
2022/02/01 03:25:11;;;;;;;4.83;1.40;;;4.20;99.90;;;;;;5080808;28;20608;-55
2022/02/01 03:27:38;;;;;;;5.63;1.90;;;4.20;99.90;;;;;;5081853;28;20217;-56
2022/02/01 03:30:05;;;;;;;6.63;1.50;;;4.20;99.90;;;;;;5080985;28;20666;-57
2022/02/01 03:32:32;;;;;;;6.37;1.47;;;4.20;99.90;;;;;;5064738;28;20296;-57
2022/02/01 03:34:59;;;;;;;1.73;1.27;;;4.20;99.90;;;;;;5079981;28;20545;-57
2022/02/01 03:37:25;;;;;;;5.17;1.23;;;4.40;99.90;;;;;;5063906;28;20296;-58
2022/02/01 03:39:52;;;;;;;8.93;1.13;;;4.40;99.90;;;;;;5078374;28;20277;-56
2022/02/01 03:42:20;;;;;;;10.27;1.70;;;4.40;99.90;;;;;;5064226;28;20209;-57
2022/02/01 03:44:48;;;;;;;8.80;1.33;;;4.30;99.90;;;;;;5078093;28;20208;-56
2022/02/01 03:47:16;;;;;;;6.97;1.30;;;4.30;99.90;;;;;;5063352;28;20208;-56
2022/02/01 03:49:43;;;;;;;4.63;0.93;;;4.20;99.90;;;;;;5081002;28;21267;-58
2022/02/01 03:52:11;;;;;;;4.33;1.47;;;4.20;99.90;;;;;;5079618;28;20281;-57
2022/02/01 03:54:40;;;;;;;7.43;1.57;;;4.10;99.90;;;;;;5079866;28;20680;-56
2022/02/01 03:57:10;;;;;;;5.37;1.33;;;4.20;99.90;;;;;;5077409;28;20303;-58
2022/02/01 03:59:37;;;;;;;7.57;1.63;;;4.20;99.90;;;;;;5061712;28;20237;-58
2022/02/01 04:02:04;;;;;;;6.47;1.37;;;4.20;99.90;;;;;;5063951;28;20308;-59
2022/02/01 04:04:33;;;;;;;7.47;1.30;;;4.20;99.90;;;;;;5061810;28;20235;-57
2022/02/01 04:07:01;;;;;;;7.23;1.50;;;4.20;99.90;;;;;;5079513;28;20194;-57
2022/02/01 04:09:28;;;;;;;7.13;1.47;;;4.20;99.90;;;;;;5074887;28;20281;-57
2022/02/01 04:11:58;;;;;;;7.57;1.10;;;4.30;99.90;;;;;;5062669;28;20231;-57
2022/02/01 04:14:29;;;;;;;7.03;1.27;;;4.30;99.90;;;;;;5081470;28;20306;-57
2022/02/01 04:16:58;;;;;;;4.27;1.20;;;4.30;99.90;;;;;;5065171;28;20224;-57
2022/02/01 04:19:28;;;;;;;4.73;1.20;;;4.30;99.90;;;;;;5081400;28;20294;-56
2022/02/01 04:22:02;;;;;;;11.07;1.70;;;4.40;99.90;;;;;;5085402;28;20201;-56
2022/02/01 04:24:34;;;;;;;3.83;1.30;;;4.20;99.90;;;;;;5081693;28;20658;-56
2022/02/01 04:27:02;;;;;;;8.77;1.70;;;4.30;99.90;;;;;;5083446;28;20207;-56
2022/02/01 04:29:29;;;;;;;6.53;1.80;;;4.20;99.90;;;;;;5083572;28;20694;-56
2022/02/01 04:31:56;;;;;;;4.27;1.30;;;4.30;99.90;;;;;;5086250;28;20209;-58
2022/02/01 04:34:23;;;;;;;7.93;2.03;;;4.20;99.90;;;;;;5085645;28;20303;-55
2022/02/01 04:36:50;;;;;;;2.73;1.43;;;4.20;99.90;;;;;;5065622;28;20832;-58
2022/02/01 04:39:17;;;;;;;11.10;2.10;;;4.20;99.90;;;;;;5083162;28;20210;-57
2022/02/01 04:41:45;;;;;;;7.13;1.63;;;4.20;99.90;;;;;;5086449;28;20208;-56
2022/02/01 04:44:12;;;;;;;7.43;1.53;;;4.20;99.90;;;;;;5083644;28;20634;-56
2022/02/01 04:46:39;;;;;;;7.77;1.87;;;4.20;99.90;;;;;;5083793;28;20843;-58
2022/02/01 04:49:09;;;;;;;10.07;2.03;;;4.20;99.90;;;;;;5066318;28;20211;-57
2022/02/01 04:51:38;;;;;;;9.53;1.93;;;4.20;99.90;;;;;;5081306;28;20720;-56
2022/02/01 04:54:05;;;;;;;3.00;1.60;;;4.20;99.90;;;;;;5085419;28;20209;-56
2022/02/01 04:56:32;;;;;;;8.67;1.63;;;4.30;99.90;;;;;;5082803;28;20651;-56
2022/02/01 04:58:59;;;;;;;7.10;1.50;;;4.20;99.90;;;;;;5085471;28;20287;-56
2022/02/01 05:01:37;;;;;;;11.67;1.93;;;4.20;99.90;;;;;;5083558;28;20297;-57
2022/02/01 05:04:05;;;;;;;6.63;1.50;;;4.20;99.90;;;;;;5081732;28;20714;-58
2022/02/01 05:06:32;;;;;;;11.77;2.03;;;4.20;99.90;;;;;;5082729;28;20203;-56
2022/02/01 05:08:59;;;;;;;10.30;1.63;;;4.20;99.90;;;;;;5081442;28;20627;-57
2022/02/01 05:11:26;;;;;;;8.40;1.57;;;4.30;99.90;;;;;;5081667;28;20657;-57
2022/02/01 05:14:05;;;;;;;11.43;1.70;;;4.30;99.90;;;;;;5083967;28;20684;-57
2022/02/01 05:17:16;;;;;;;8.40;1.80;;;4.30;99.90;;;;;;5083981;28;20269;-57
2022/02/01 05:19:54;;;;;;;8.27;1.63;;;4.30;99.90;;;;;;5071353;28;20227;-56
2022/02/01 05:22:17;;;;;;;8.73;1.80;;;4.40;99.90;;;;;;5080274;28;20267;-56
2022/02/01 05:24:46;;;;;;;12.50;2.63;;;4.40;99.90;;;;;;5082237;28;20234;-56
2022/02/01 05:27:13;;;;;;;5.87;1.87;;;4.40;99.90;;;;;;5082815;28;20307;-56
2022/02/01 05:29:41;;;;;;;7.53;1.93;;;4.40;99.90;;;;;;5082525;28;20640;-56
2022/02/01 05:32:43;;;;;;;11.13;2.33;;;4.40;99.90;;;;;;5086493;28;20255;-56
2022/02/01 05:35:03;;;;;;;8.03;1.63;;;4.40;99.90;;;;;;5080591;28;20237;-55
2022/02/01 05:37:30;;;;;;;7.77;2.23;;;4.40;99.90;;;;;;5079562;28;20351;-55
2022/02/01 05:39:58;;;;;;;11.43;2.77;;;4.40;99.90;;;;;;5081199;28;20306;-57
2022/02/01 05:42:35;;;;;;;9.47;2.47;;;4.40;99.90;;;;;;5082797;28;20305;-58
2022/02/01 05:45:03;;;;;;;11.27;2.90;;;4.50;99.90;;;;;;5084362;28;20630;-58
2022/02/01 05:47:30;;;;;;;14.37;2.47;;;4.50;99.90;;;;;;5082141;28;20209;-57
2022/02/01 05:49:57;;;;;;;8.73;2.37;;;4.60;99.90;;;;;;5081235;28;20633;-58
2022/02/01 05:52:24;;;;;;;9.83;2.30;;;4.60;99.90;;;;;;5081609;28;20230;-56
2022/02/01 05:54:56;;;;;;;12.10;3.63;;;4.60;99.90;;;;;;5084531;28;21182;-58
2022/02/01 05:57:26;;;;;;;6.67;2.60;;;4.60;99.90;;;;;;5081627;28;20237;-58
2022/02/01 05:59:53;;;;;;;11.53;2.67;;;4.60;99.90;;;;;;5081806;28;20580;-57
2022/02/01 06:02:19;;;;;;;3.77;2.37;;;4.60;99.90;;;;;;5079630;28;20248;-56
2022/02/01 06:04:46;;;;;;;12.17;2.83;;;4.60;99.90;;;;;;5080727;28;20244;-57
2022/02/01 06:07:13;;;;;;;10.90;2.67;;;4.60;99.90;;;;;;5082615;28;20209;-56
2022/02/01 06:09:40;;;;;;;10.00;3.03;;;4.60;99.90;;;;;;5077046;28;20929;-57
2022/02/01 06:12:08;;;;;;;13.17;3.30;;;4.60;99.90;;;;;;5081419;28;20243;-57
2022/02/01 06:14:37;;;;;;;13.87;3.87;;;4.60;99.90;;;;;;5079293;28;20208;-57
2022/02/01 06:17:05;;;;;;;12.20;3.97;;;4.60;99.90;;;;;;5084509;28;20247;-56
2022/02/01 06:19:34;;;;;;;12.23;4.13;;;4.60;99.90;;;;;;5081297;28;20208;-55
2022/02/01 06:22:03;;;;;;;8.80;3.77;;;4.60;99.90;;;;;;5078429;28;20200;-56
2022/02/01 06:24:31;;;;;;;17.73;4.00;;;4.60;99.90;;;;;;5080963;28;20205;-58
2022/02/01 06:26:58;;;;;;;11.90;4.50;;;4.60;99.90;;;;;;5081248;28;20233;-56
2022/02/01 06:29:25;;;;;;;10.43;3.37;;;4.60;99.90;;;;;;5059638;28;20250;-57
2022/02/01 06:31:53;;;;;;;16.47;4.47;;;4.50;99.90;;;;;;5060606;28;20209;-57
2022/02/01 06:34:20;;;;;;;12.07;4.20;;;4.60;99.90;;;;;;5081233;28;20292;-56
2022/02/01 06:36:46;;;;;;;16.03;4.70;;;4.60;99.90;;;;;;5078878;28;20233;-56
2022/02/01 06:39:13;;;;;;;10.47;3.97;;;4.60;99.90;;;;;;5078089;28;20243;-57
2022/02/01 06:41:40;;;;;;;11.20;4.43;;;4.60;99.90;;;;;;5080292;28;20204;-58
2022/02/01 06:44:07;;;;;;;21.33;4.90;;;4.60;99.90;;;;;;5078808;28;20658;-56
2022/02/01 06:46:35;;;;;;;16.60;5.77;;;4.60;99.90;;;;;;5079442;28;20198;-56
2022/02/01 06:49:03;;;;;;;18.80;5.90;;;4.60;99.90;;;;;;5080765;28;20232;-56
2022/02/01 06:51:30;;;;;;;15.43;5.67;;;4.60;99.90;;;;;;5060879;28;20286;-56
2022/02/01 06:53:58;;;;;;;19.33;6.67;;;4.60;99.90;;;;;;5080618;28;20300;-56
2022/02/01 06:56:32;;;;;;;20.43;7.27;;;4.70;99.90;;;;;;5078281;28;20307;-58
2022/02/01 06:59:01;;;;;;;12.90;7.27;;;4.70;99.90;;;;;;5076426;28;20200;-58
2022/02/01 07:01:29;;;;;;;17.67;8.70;;;4.70;99.90;;;;;;5068083;28;20370;-57
2022/02/01 07:03:56;;;;;;;14.27;8.10;;;4.80;99.90;;;;;;5074255;28;20237;-55
2022/02/01 07:06:24;;;;;;;21.60;10.03;;;4.80;99.90;;;;;;5075635;28;20304;-56
2022/02/01 07:08:52;;;;;;;17.80;9.47;;;4.80;99.90;;;;;;5069035;28;20416;-56
2022/02/01 07:11:20;;;;;;;17.23;10.00;;;4.80;99.90;;;;;;5078617;28;20306;-54
2022/02/01 07:13:47;;;;;;;22.30;10.63;;;4.80;99.90;;;;;;5075922;28;20228;-56
2022/02/01 07:16:15;;;;;;;27.87;12.60;;;4.80;99.90;;;;;;5070479;28;20203;-56
2022/02/01 07:18:42;;;;;;;22.27;11.07;;;4.80;99.90;;;;;;5078597;28;20538;-56
2022/02/01 07:21:10;;;;;;;22.90;12.87;;;4.80;99.90;;;;;;5076902;28;20214;-56
2022/02/01 07:23:38;;;;;;;23.93;12.40;;;4.80;99.90;;;;;;5082810;28;20199;-59
2022/02/01 07:26:07;;;;;;;28.77;14.40;;;4.80;99.90;;;;;;5073154;28;20533;-56
2022/02/01 07:28:35;;;;;;;25.67;13.87;;;4.80;99.90;;;;;;5071855;28;20203;-56
2022/02/01 07:31:03;;;;;;;28.43;15.73;;;4.80;99.90;;;;;;5064617;28;20268;-56
2022/02/01 07:33:30;;;;;;;28.80;14.47;;;4.80;99.90;;;;;;5070488;28;20199;-56
2022/02/01 07:35:58;;;;;;;26.17;13.70;;;4.80;99.90;;;;;;5076296;28;20212;-57
2022/02/01 07:38:26;;;;;;;34.67;14.63;;;4.80;99.90;;;;;;5084484;28;20224;-56
2022/02/01 07:40:55;;;;;;;25.43;15.10;;;4.90;99.90;;;;;;5079593;28;20197;-56
2022/02/01 07:43:24;;;;;;;22.93;14.20;;;4.90;99.90;;;;;;5077275;28;20238;-58
2022/02/01 07:45:52;;;;;;;23.33;13.87;;;4.90;99.90;;;;;;5075631;28;20308;-56
2022/02/01 07:48:19;;;;;;;21.57;13.37;;;4.80;99.90;;;;;;5077213;28;20209;-57
2022/02/01 07:50:46;;;;;;;24.20;14.67;;;4.80;99.90;;;;;;5062454;28;20616;-56
2022/02/01 07:53:13;;;;;;;24.97;15.43;;;4.90;99.90;;;;;;5077418;28;20295;-56
2022/02/01 07:55:40;;;;;;;27.50;15.17;;;4.90;99.90;;;;;;5072724;28;20208;-56
2022/02/01 07:58:07;;;;;;;23.20;13.83;;;4.90;99.90;;;;;;5077444;28;20350;-57
2022/02/01 08:00:34;;;;;;;23.80;14.23;;;4.90;99.90;;;;;;5078557;28;20271;-55
2022/02/01 08:03:01;;;;;;;29.07;16.27;;;4.90;99.90;;;;;;5063030;28;20236;-57
2022/02/01 08:05:30;;;;;;;24.57;14.43;;;4.90;99.90;;;;;;5084150;28;20245;-56
2022/02/01 08:08:04;;;;;;;23.03;13.97;;;4.80;99.90;;;;;;5080381;28;20290;-57
2022/02/01 08:10:45;;;;;;;21.83;15.13;;;4.90;99.90;;;;;;5080026;28;20347;-56
2022/02/01 08:21:26;;;;;;;27.80;16.67;;;5.00;99.90;;;;;;5079388;28;20709;-57
2022/02/01 08:23:53;;;;;;;26.40;15.97;;;4.90;99.90;;;;;;5057903;28;20204;-57
2022/02/01 08:26:21;;;;;;;29.73;16.17;;;5.00;99.90;;;;;;5077337;28;20809;-58
2022/02/01 08:28:49;;;;;;;25.23;16.60;;;5.00;99.90;;;;;;5082264;28;20595;-57
2022/02/01 08:31:36;;;;;;;24.23;15.97;;;5.00;99.90;;;;;;5084136;28;20313;-57
2022/02/01 08:34:03;;;;;;;24.77;15.57;;;5.00;99.90;;;;;;5083346;28;20543;-58
2022/02/01 08:36:30;;;;;;;21.07;13.97;;;5.10;99.90;;;;;;5076855;28;20263;-56
2022/02/01 08:38:57;;;;;;;20.57;13.40;;;5.10;99.90;;;;;;5079899;28;20734;-57
2022/02/01 08:41:23;;;;;;;29.53;15.17;;;5.10;99.90;;;;;;5057607;28;20543;-56
2022/02/01 08:43:53;;;;;;;23.60;15.37;;;5.10;99.90;;;;;;5080816;28;21095;-58
2022/02/01 08:46:22;;;;;;;20.80;13.37;;;5.10;99.90;;;;;;5061647;28;20213;-57
2022/02/01 08:48:49;;;;;;;19.20;13.13;;;5.10;99.90;;;;;;5084461;28;20225;-57
2022/02/01 08:51:18;;;;;;;23.43;13.93;;;5.10;99.90;;;;;;5080593;28;20209;-55
2022/02/01 08:53:55;;;;;;;21.37;13.93;;;5.10;99.90;;;;;;5083262;28;20214;-58
2022/02/01 08:59:28;;;;;;;17.10;10.43;;;5.20;99.90;;;;;;5066504;28;20217;-56
2022/02/01 09:01:55;;;;;;;19.27;12.43;;;5.20;99.90;;;;;;5081657;28;20202;-56
2022/02/01 09:04:22;;;;;;;18.30;12.87;;;5.20;99.90;;;;;;5076637;28;20342;-56
2022/02/01 09:06:49;;;;;;;16.83;11.30;;;5.30;99.90;;;;;;5058367;28;20561;-57
2022/02/01 09:09:16;;;;;;;13.80;10.07;;;5.30;99.90;;;;;;5080147;28;20293;-56
2022/02/01 09:11:45;;;;;;;20.13;12.00;;;5.30;99.90;;;;;;5083074;28;20204;-56
2022/02/01 09:14:12;;;;;;;14.67;10.77;;;5.30;99.90;;;;;;5083597;28;20212;-57
2022/02/01 09:16:41;;;;;;;15.37;11.00;;;5.40;99.90;;;;;;5079018;28;20198;-57
2022/02/01 09:19:08;;;;;;;14.30;10.40;;;5.40;99.90;;;;;;5082863;28;20781;-57
2022/02/01 09:21:35;;;;;;;14.80;10.57;;;5.40;99.90;;;;;;5082361;28;20216;-58
2022/02/01 09:24:02;;;;;;;15.07;10.47;;;5.40;99.90;;;;;;5081401;28;20273;-56
2022/02/01 09:26:29;;;;;;;13.30;8.93;;;5.50;99.90;;;;;;5064919;28;20244;-58
2022/02/01 09:29:17;;;;;;;14.73;9.07;;;5.60;99.90;;;;;;5080599;28;20207;-58
2022/02/01 09:31:44;;;;;;;13.50;9.83;;;5.60;99.90;;;;;;5079879;28;20225;-57
2022/02/01 09:34:10;;;;;;;13.10;9.07;;;5.60;99.90;;;;;;5082253;28;20208;-58
2022/02/01 09:36:37;;;;;;;12.07;8.20;;;5.80;99.90;;;;;;5081118;28;20213;-61
2022/02/01 09:39:05;;;;;;;12.63;7.47;;;5.80;99.90;;;;;;5080632;28;20251;-56
2022/02/01 09:41:33;;;;;;;13.03;8.43;;;5.90;99.90;;;;;;5067038;28;20209;-57
2022/02/01 09:44:00;;;;;;;11.10;8.03;;;5.90;99.90;;;;;;5067415;28;20636;-56
2022/02/01 09:46:27;;;;;;;16.13;8.70;;;5.90;99.90;;;;;;5082473;28;20227;-58
2022/02/01 09:48:54;;;;;;;11.73;8.03;;;6.00;99.90;;;;;;5066660;28;20224;-57
2022/02/01 09:51:21;;;;;;;10.93;7.57;;;6.00;99.90;;;;;;5080556;28;20300;-56
2022/02/01 09:54:07;;;;;;;8.67;6.80;;;6.10;99.90;;;;;;5081991;28;20210;-57
2022/02/01 09:56:35;;;;;;;9.13;6.10;;;6.10;99.90;;;;;;5082846;28;20198;-58
2022/02/01 09:59:12;;;;;;;10.53;6.97;;;6.10;99.90;;;;;;5082865;28;20219;-57
2022/02/01 10:01:53;;;;;;;11.13;6.40;;;6.20;99.90;;;;;;5081449;28;20197;-57
2022/02/01 10:04:27;;;;;;;10.67;5.13;;;6.30;99.90;;;;;;5079315;28;20248;-56
2022/02/01 10:07:14;;;;;;;11.57;6.57;;;6.30;99.90;;;;;;5076094;28;20191;-57
2022/02/01 10:09:49;;;;;;;8.97;6.07;;;6.30;99.90;;;;;;5082790;28;20293;-55
2022/02/01 10:12:18;;;;;;;8.03;5.37;;;6.40;99.90;;;;;;5080261;28;20237;-56
2022/02/01 10:14:53;;;;;;;10.43;6.07;;;6.40;99.90;;;;;;5078875;28;20207;-59
2022/02/01 10:17:34;;;;;;;10.07;5.67;;;6.40;99.90;;;;;;5061624;28;20305;-57
2022/02/01 10:20:03;;;;;;;7.90;5.80;;;6.40;99.90;;;;;;5072118;28;20232;-57
2022/02/01 10:22:35;;;;;;;8.57;5.43;;;6.40;99.90;;;;;;5063830;28;20205;-56
2022/02/01 10:25:05;;;;;;;8.77;4.97;;;6.50;99.90;;;;;;5078666;28;20222;-57
2022/02/01 10:27:37;;;;;;;8.80;5.60;;;6.50;99.90;;;;;;5082693;28;20205;-58
2022/02/01 10:38:03;;;;;;;9.17;4.50;;;6.70;99.90;;;;;;5076873;28;20268;-56
2022/02/01 10:40:41;;;;;;;8.20;4.67;;;6.70;99.90;;;;;;5062070;28;20742;-56
2022/02/01 10:43:32;;;;;;;6.43;4.70;;;6.80;99.90;;;;;;5081348;28;20223;-56
2022/02/01 10:46:12;;;;;;;9.40;4.70;;;6.80;99.90;;;;;;5079950;28;20618;-56
2022/02/01 10:48:46;;;;;;;8.60;4.37;;;6.80;99.90;;;;;;5079431;28;20205;-56
2022/02/01 10:51:20;;;;;;;8.43;4.33;;;6.90;99.90;;;;;;5080813;28;20205;-56
2022/02/01 10:53:47;;;;;;;7.47;4.50;;;7.00;99.90;;;;;;5079120;28;20209;-57
2022/02/01 10:56:17;;;;;;;8.00;4.67;;;7.00;99.90;;;;;;5062539;28;20202;-56
2022/02/01 10:58:46;;;;;;;6.80;3.80;;;7.10;99.90;;;;;;5083881;28;20220;-57
2022/02/01 11:01:13;;;;;;;7.83;4.60;;;7.00;99.90;;;;;;5078057;28;20210;-57
2022/02/01 11:03:45;;;;;;;5.07;3.97;;;7.10;99.90;;;;;;5080087;28;20694;-58
2022/02/01 11:06:13;;;;;;;7.77;3.80;;;7.10;99.90;;;;;;5079006;28;20236;-57
2022/02/01 11:08:43;;;;;;;5.53;3.73;;;7.20;99.90;;;;;;5076948;28;20658;-57
2022/02/01 11:11:20;;;;;;;7.27;3.80;;;7.20;99.90;;;;;;5073805;28;20194;-59
2022/02/01 11:13:49;;;;;;;7.23;4.20;;;7.30;99.90;;;;;;5072407;28;20235;-56
2022/02/01 11:16:25;;;;;;;6.60;3.73;;;7.30;99.90;;;;;;5076720;28;20212;-57
2022/02/01 11:19:03;;;;;;;5.37;3.80;;;7.30;99.90;;;;;;5046895;28;20689;-57
2022/02/01 11:21:43;;;;;;;6.90;3.63;;;7.40;99.90;;;;;;5079497;28;20222;-57
2022/02/01 11:24:32;;;;;;;6.33;3.50;;;7.40;99.90;;;;;;5064506;28;20276;-56
2022/02/01 11:27:16;;;;;;;8.80;3.40;;;7.50;99.90;;;;;;5078551;28;20650;-55
2022/02/01 11:30:18;;;;;;;4.53;3.20;;;7.50;99.90;;;;;;5076499;28;20250;-56
2022/02/01 11:32:48;;;;;;;5.43;3.00;;;7.50;99.90;;;;;;5072386;28;20226;-58
2022/02/01 11:35:22;;;;;;;7.50;3.40;;;7.50;99.90;;;;;;5084338;28;20204;-58
2022/02/01 11:38:23;;;;;;;6.47;3.40;;;7.50;99.90;;;;;;5083086;28;20254;-58
2022/02/01 11:41:06;;;;;;;8.90;3.33;;;7.60;99.90;;;;;;5080771;28;20334;-56
2022/02/01 11:43:40;;;;;;;6.43;3.30;;;7.60;99.90;;;;;;5080674;28;20384;-57
2022/02/01 11:46:10;;;;;;;7.40;3.53;;;7.60;99.90;;;;;;5083059;28;20199;-56
2022/02/01 11:48:39;;;;;;;6.20;3.20;;;7.70;99.90;;;;;;5060280;28;20202;-56
2022/02/01 11:51:12;;;;;;;4.03;3.13;;;7.70;99.90;;;;;;5076957;28;20214;-56
2022/02/01 11:53:41;;;;;;;5.27;3.63;;;7.70;99.90;;;;;;5080403;28;20290;-57
2022/02/01 11:56:11;;;;;;;7.53;3.87;;;7.70;99.90;;;;;;5082483;28;20204;-57
2022/02/01 11:58:46;;;;;;;9.07;3.80;;;7.80;99.90;;;;;;5082956;28;20214;-56
2022/02/01 12:01:48;;;;;;;10.83;4.17;;;7.80;99.90;;;;;;5080474;28;20219;-57
2022/02/01 12:04:18;;;;;;;8.70;4.10;;;7.80;99.90;;;;;;5020715;28;20816;-56
2022/02/01 12:06:53;;;;;;;8.70;4.00;;;7.80;99.90;;;;;;5022331;28;20692;-56
2022/02/01 12:09:22;;;;;;;10.43;4.53;;;7.90;99.90;;;;;;5017545;28;20274;-55
2022/02/01 12:11:58;;;;;;;10.30;4.80;;;7.90;99.90;;;;;;5019226;28;20208;-56
2022/02/01 12:14:26;;;;;;;8.47;4.60;;;7.90;99.90;;;;;;5019120;28;20210;-57
2022/02/01 12:16:54;;;;;;;11.47;4.97;;;8.00;99.90;;;;;;5021380;28;20201;-58
2022/02/01 12:19:51;;;;;;;13.93;5.30;;;8.00;99.90;;;;;;5021282;28;20248;-57
2022/02/01 12:22:40;;;;;;;16.03;4.43;;;8.00;99.90;;;;;;5020580;28;20639;-58
2022/02/01 12:25:10;;;;;;;13.63;4.40;;;8.10;99.90;;;;;;5022711;28;20261;-58
2022/02/01 12:27:44;;;;;;;10.67;4.87;;;8.10;99.90;;;;;;5023200;28;20288;-58
2022/02/01 12:30:12;;;;;;;14.40;4.57;;;8.20;99.90;;;;;;5020415;28;20254;-58
2022/02/01 12:32:54;;;;;;;11.90;4.00;;;8.20;99.90;;;;;;5020309;28;20205;-58
2022/02/01 12:35:36;;;;;;;12.97;3.30;;;8.20;99.90;;;;;;5021241;28;20353;-58
2022/02/01 12:38:12;;;;;;;12.50;3.63;;;8.30;99.90;;;;;;5045453;28;20226;-57
2022/02/01 12:40:39;;;;;;;11.57;4.00;;;8.30;99.90;;;;;;5082972;28;20348;-57
2022/02/01 12:43:18;;;;;;;6.53;3.33;;;8.30;99.90;;;;;;5085177;28;20739;-58
2022/02/01 12:45:58;;;;;;;11.37;4.67;;;8.30;99.90;;;;;;5083495;28;20202;-58
2022/02/01 12:48:25;;;;;;;13.33;4.33;;;8.30;99.90;;;;;;5083320;28;20240;-60
2022/02/01 12:50:58;;;;;;;8.30;4.00;;;8.30;99.90;;;;;;5083175;28;20322;-57
2022/02/01 12:53:25;;;;;;;10.00;4.17;;;8.40;99.90;;;;;;5083962;28;20704;-59
2022/02/01 12:55:52;;;;;;;10.83;3.27;;;8.40;99.90;;;;;;5085479;28;20209;-56
2022/02/01 12:58:19;;;;;;;6.80;3.27;;;8.40;99.90;;;;;;5085046;28;20657;-57
2022/02/01 13:00:51;;;;;;;12.10;3.97;;;8.40;99.90;;;;;;5080257;28;20202;-57
2022/02/01 13:03:19;;;;;;;12.37;3.73;;;8.40;99.90;;;;;;5080846;28;20973;-57
2022/02/01 13:05:46;;;;;;;9.83;3.50;;;8.40;99.90;;;;;;5080966;28;20268;-57
2022/02/01 13:08:37;;;;;;;8.07;3.43;;;8.50;99.90;;;;;;5060092;28;20646;-57
2022/02/01 13:16:36;;;;;;;12.77;3.40;;;8.60;99.90;;;;;;5078560;28;20568;-56
2022/02/01 13:21:42;;;;;;;10.63;3.03;;;8.70;99.90;;;;;;5079062;28;20616;-57
2022/02/01 13:24:11;;;;;;;8.87;2.87;;;8.70;99.90;;;;;;5084078;28;20646;-56
2022/02/01 13:26:58;;;;;;;7.00;2.43;;;8.80;99.90;;;;;;5081490;28;20288;-59
2022/02/01 13:29:25;;;;;;;12.70;3.27;;;8.80;99.90;;;;;;5082014;28;20666;-58
2022/02/01 13:31:53;;;;;;;8.10;3.13;;;8.80;99.90;;;;;;5080870;28;20216;-58
2022/02/01 13:34:27;;;;;;;10.27;3.10;;;8.90;99.90;;;;;;5085039;28;20644;-58
2022/02/01 13:37:00;;;;;;;5.67;2.80;;;8.90;99.90;;;;;;5063772;28;20198;-58
2022/02/01 13:39:30;;;;;;;9.73;2.97;;;8.90;99.90;;;;;;5080601;28;20222;-58
2022/02/01 13:41:59;;;;;;;8.20;2.93;;;9.00;99.90;;;;;;5079487;28;20198;-58
2022/02/01 13:44:53;;;;;;;10.43;2.90;;;9.00;99.90;;;;;;5081944;28;20680;-58
2022/02/01 13:47:37;;;;;;;7.07;2.43;;;9.00;99.90;;;;;;5080781;28;20251;-57
2022/02/01 13:50:15;;;;;;;12.60;3.30;;;9.10;99.90;;;;;;5060035;28;20661;-58
2022/02/01 13:52:42;;;;;;;8.83;2.67;;;9.10;99.90;;;;;;5065514;28;20572;-58
2022/02/01 13:55:20;;;;;;;5.53;2.47;;;9.10;99.90;;;;;;5079811;28;21647;-57
2022/02/01 13:57:47;;;;;;;9.77;2.77;;;9.10;99.90;;;;;;5080825;28;20410;-58
2022/02/01 14:00:15;;;;;;;8.73;2.90;;;9.10;99.90;;;;;;5082493;28;20221;-55
2022/02/01 14:02:51;;;;;;;6.83;2.73;;;9.20;99.90;;;;;;5078789;28;20293;-58
2022/02/01 14:05:27;;;;;;;5.93;2.43;;;9.20;99.90;;;;;;5081654;28;20270;-59
2022/02/01 14:25:12;;;;;;;6.40;2.50;;;9.30;99.90;;;;;;5078039;28;20302;-58
2022/02/01 14:27:16;;;;;;;5.43;2.50;;;9.40;99.90;;;;;;5081151;28;20661;-58
2022/02/01 14:35:05;;;;;;;6.73;2.40;;;9.50;99.90;;;;;;5060521;28;20224;-58
2022/02/01 14:37:48;;;;;;;6.10;2.40;;;9.50;99.90;;;;;;5083446;28;20205;-58
2022/02/01 14:43:36;;;;;;;6.10;2.70;;;9.50;99.90;;;;;;5080831;28;20541;-55
2022/02/01 14:46:04;;;;;;;8.60;2.73;;;9.50;99.90;;;;;;5078258;28;20231;-58
2022/02/01 14:48:36;;;;;;;4.73;2.50;;;9.60;99.90;;;;;;5081457;28;20214;-57
2022/02/01 14:51:07;;;;;;;8.27;2.07;;;9.50;99.90;;;;;;5079977;28;20206;-56
2022/02/01 14:53:35;;;;;;;8.27;2.30;;;9.60;99.90;;;;;;5062243;28;20580;-59
2022/02/01 14:56:40;;;;;;;5.23;2.50;;;9.60;99.90;;;;;;5078229;28;20195;-58